Time;durP1;ratioP1;P1;durP2;ratioP2;P2;SDS_P1;SDS_P2;PMS_P1;PMS_P2;Temp;Humidity;BMP_temperature;BMP_pressure;BME280_temperature;BME280_humidity;BME280_pressure;Samples;Min_cycle;Max_cycle;Signal;HPM_P1;HPM_P2
2023/06/17 01:40:29;;;;;;;7.28;4.50;;;22.00;60.00;;;;;;5083121;28;20135;-73
2023/06/17 01:42:59;;;;;;;7.55;5.00;;;22.00;60.60;;;;;;5094063;28;20040;-73
2023/06/17 01:45:25;;;;;;;7.18;4.25;;;22.00;60.70;;;;;;5093678;28;20039;-74
2023/06/17 01:47:50;;;;;;;7.43;4.97;;;22.00;60.50;;;;;;5093911;28;20433;-73
2023/06/17 01:50:19;;;;;;;6.72;4.28;;;22.10;60.70;;;;;;5093590;28;20024;-74
2023/06/17 01:52:45;;;;;;;8.75;4.65;;;22.00;60.70;;;;;;5093523;28;20065;-73
2023/06/17 01:55:13;;;;;;;6.68;4.55;;;22.00;60.70;;;;;;5075453;28;20036;-73
2023/06/17 01:57:39;;;;;;;9.88;4.65;;;22.00;60.80;;;;;;5093562;28;20036;-73
2023/06/17 02:00:07;;;;;;;6.97;4.82;;;21.90;60.80;;;;;;5093356;28;20089;-73
2023/06/17 02:02:32;;;;;;;7.93;4.90;;;21.90;60.80;;;;;;5093589;28;20343;-74
2023/06/17 02:04:58;;;;;;;7.53;4.40;;;21.90;60.90;;;;;;5092824;28;20105;-73
2023/06/17 02:07:24;;;;;;;9.35;4.47;;;21.90;60.90;;;;;;5093266;28;20402;-73
2023/06/17 02:09:50;;;;;;;9.48;5.10;;;21.90;60.70;;;;;;5093619;28;20524;-73
2023/06/17 02:12:16;;;;;;;7.78;4.15;;;21.90;60.80;;;;;;5093553;28;20032;-72
2023/06/17 02:14:42;;;;;;;7.90;4.40;;;21.90;60.60;;;;;;5092999;28;20036;-73
2023/06/17 02:17:11;;;;;;;7.00;4.47;;;21.90;60.50;;;;;;5093149;28;20043;-73
2023/06/17 02:19:37;;;;;;;8.75;4.65;;;21.90;60.10;;;;;;5093327;28;20024;-73
2023/06/17 02:22:04;;;;;;;8.70;4.60;;;21.80;60.80;;;;;;5093367;28;20028;-73
2023/06/17 02:24:30;;;;;;;8.85;4.57;;;21.80;60.40;;;;;;5093169;28;20056;-72
2023/06/17 02:26:56;;;;;;;6.80;4.40;;;21.80;60.50;;;;;;5092928;28;20504;-72
2023/06/17 02:29:22;;;;;;;7.22;4.50;;;21.80;60.30;;;;;;5093282;28;20067;-74
2023/06/17 02:31:48;;;;;;;7.97;4.43;;;21.80;60.10;;;;;;5093261;28;20032;-73
2023/06/17 02:34:13;;;;;;;6.28;3.97;;;21.70;59.90;;;;;;5092748;28;20040;-72
2023/06/17 02:36:39;;;;;;;7.22;4.50;;;21.80;59.70;;;;;;5093074;28;20055;-72
2023/06/17 02:39:06;;;;;;;7.53;4.47;;;21.80;59.50;;;;;;5092802;28;20044;-73
2023/06/17 02:41:32;;;;;;;8.70;4.25;;;21.80;59.30;;;;;;5093563;28;20036;-71
2023/06/17 02:43:58;;;;;;;7.13;4.45;;;21.70;59.10;;;;;;5092729;28;20032;-73
2023/06/17 02:46:27;;;;;;;7.50;4.57;;;21.70;59.20;;;;;;5092628;28;20375;-74
2023/06/17 02:48:54;;;;;;;8.52;4.55;;;21.70;59.10;;;;;;5091779;28;20024;-72
2023/06/17 02:51:20;;;;;;;6.88;4.63;;;21.60;59.10;;;;;;5092141;28;20036;-73
2023/06/17 02:53:46;;;;;;;7.95;4.97;;;21.60;58.90;;;;;;5073784;28;20105;-72
2023/06/17 02:56:12;;;;;;;9.32;4.55;;;21.60;58.80;;;;;;5092284;28;20063;-73
2023/06/17 02:58:38;;;;;;;6.88;4.60;;;21.60;58.70;;;;;;5092350;28;20066;-74
2023/06/17 03:01:05;;;;;;;10.60;4.55;;;21.60;58.70;;;;;;5092183;28;20510;-73
2023/06/17 03:03:35;;;;;;;7.72;4.88;;;21.60;58.80;;;;;;5091857;28;20482;-73
2023/06/17 03:06:03;;;;;;;9.07;4.47;;;21.50;58.50;;;;;;5091953;28;20032;-74
2023/06/17 03:08:36;;;;;;;7.05;4.55;;;21.50;58.70;;;;;;5092516;28;20032;-73
2023/06/17 03:11:02;;;;;;;;;;;21.50;58.60;;;;;;5093292;28;20126;-74
2023/06/17 03:13:29;;;;;;;7.57;4.72;;;21.40;58.70;;;;;;5091818;28;20011;-72
2023/06/17 03:15:58;;;;;;;9.00;3.90;;;21.40;58.90;;;;;;5091938;28;20058;-72
2023/06/17 03:18:24;;;;;;;7.25;4.60;;;21.40;59.10;;;;;;5091858;28;20050;-71
2023/06/17 03:20:51;;;;;;;8.40;4.35;;;21.30;59.20;;;;;;5091959;28;20047;-72
2023/06/17 03:23:17;;;;;;;8.98;5.10;;;21.30;59.30;;;;;;5091716;28;20107;-72
2023/06/17 03:25:44;;;;;;;11.02;4.93;;;21.20;59.30;;;;;;5091935;28;20044;-73
2023/06/17 03:28:10;;;;;;;6.43;4.50;;;21.20;59.40;;;;;;5091768;28;20150;-73
2023/06/17 03:30:38;;;;;;;10.20;5.00;;;21.20;59.40;;;;;;5091552;28;20047;-73
2023/06/17 03:33:04;;;;;;;7.47;4.60;;;21.20;59.50;;;;;;5091485;28;20036;-73
2023/06/17 03:35:30;;;;;;;7.15;5.22;;;21.10;59.80;;;;;;5091724;28;20549;-73
2023/06/17 03:37:55;;;;;;;8.93;4.75;;;21.10;60.00;;;;;;5091696;28;20030;-73
2023/06/17 03:40:21;;;;;;;10.57;5.38;;;21.10;60.10;;;;;;5091556;28;20052;-74
2023/06/17 03:42:47;;;;;;;7.60;4.53;;;21.10;60.30;;;;;;5091540;28;20029;-73
2023/06/17 03:45:12;;;;;;;10.20;4.93;;;21.00;60.50;;;;;;5073321;28;20035;-73
2023/06/17 03:47:38;;;;;;;13.18;5.13;;;21.10;60.40;;;;;;5091573;28;20031;-72
2023/06/17 03:50:06;;;;;;;7.18;4.55;;;21.10;60.40;;;;;;5091807;28;20346;-73
2023/06/17 03:52:31;;;;;;;6.13;4.30;;;21.10;60.40;;;;;;5073920;28;20025;-73
2023/06/17 03:54:57;;;;;;;7.07;4.60;;;21.00;60.90;;;;;;5091665;28;20050;-73
2023/06/17 03:57:23;;;;;;;8.88;5.07;;;20.90;60.50;;;;;;5091836;28;20097;-74
2023/06/17 03:59:49;;;;;;;8.90;4.95;;;20.90;61.00;;;;;;5091717;28;20431;-74
2023/06/17 04:02:15;;;;;;;8.05;4.80;;;20.90;60.90;;;;;;5094615;28;20055;-73
2023/06/17 04:04:40;;;;;;;9.68;5.28;;;20.90;61.30;;;;;;5095743;28;20053;-73
2023/06/17 04:07:06;;;;;;;7.75;4.93;;;20.90;60.90;;;;;;5095750;28;20062;-74
2023/06/17 04:09:32;;;;;;;7.05;4.78;;;20.90;61.60;;;;;;5096182;28;20039;-73
2023/06/17 04:11:57;;;;;;;8.18;4.85;;;20.90;61.60;;;;;;5095901;28;20153;-73
2023/06/17 04:14:23;;;;;;;11.23;4.50;;;20.90;61.70;;;;;;5095440;28;20493;-72
2023/06/17 04:16:51;;;;;;;10.80;5.38;;;20.90;61.70;;;;;;5095846;28;20385;-74
2023/06/17 04:19:17;;;;;;;7.63;4.72;;;20.90;61.90;;;;;;5095594;28;20036;-74
2023/06/17 04:21:45;;;;;;;7.10;5.05;;;21.00;62.00;;;;;;5095618;28;20038;-73
2023/06/17 04:24:11;;;;;;;8.40;5.15;;;21.10;61.80;;;;;;5095170;28;20501;-74
2023/06/17 04:26:37;;;;;;;9.07;4.90;;;21.10;61.90;;;;;;5095494;28;20029;-74
2023/06/17 04:29:03;;;;;;;10.35;5.50;;;21.10;61.70;;;;;;5095642;28;20040;-74
2023/06/17 04:31:29;;;;;;;6.28;4.45;;;21.00;61.80;;;;;;5095443;28;20016;-74
2023/06/17 04:33:54;;;;;;;9.13;5.03;;;21.00;61.70;;;;;;5077212;28;20109;-74
2023/06/17 04:36:21;;;;;;;7.85;4.80;;;21.10;61.70;;;;;;5094956;28;20032;-73
2023/06/17 04:38:49;;;;;;;10.02;5.38;;;21.20;61.60;;;;;;5094967;28;20059;-73
2023/06/17 04:41:16;;;;;;;11.85;5.15;;;21.20;61.60;;;;;;5095188;28;20490;-73
2023/06/17 04:43:45;;;;;;;7.63;4.93;;;21.30;61.30;;;;;;5095093;28;20102;-75
2023/06/17 04:46:12;;;;;;;13.10;5.15;;;21.30;61.50;;;;;;5095067;28;20028;-74
2023/06/17 04:48:38;;;;;;;8.82;5.10;;;21.40;61.00;;;;;;5076804;28;20493;-74
2023/06/17 04:51:07;;;;;;;7.80;4.97;;;21.40;60.90;;;;;;5095180;28;20032;-72
2023/06/17 04:53:33;;;;;;;8.95;5.20;;;21.30;60.90;;;;;;5095059;28;20044;-73
2023/06/17 04:55:58;;;;;;;7.50;4.88;;;21.40;61.20;;;;;;5095071;28;20032;-73
2023/06/17 04:58:24;;;;;;;7.90;4.70;;;21.40;61.30;;;;;;5094935;28;20036;-73
2023/06/17 05:00:50;;;;;;;7.80;4.70;;;21.40;61.00;;;;;;5094755;28;20073;-74
2023/06/17 05:03:16;;;;;;;8.45;4.55;;;21.40;61.00;;;;;;5094970;28;20028;-74
2023/06/17 05:05:41;;;;;;;10.27;5.13;;;21.50;60.80;;;;;;5094702;28;20028;-75
2023/06/17 05:08:07;;;;;;;9.50;5.05;;;21.70;60.50;;;;;;5094806;28;20032;-74
2023/06/17 05:10:33;;;;;;;7.97;4.90;;;21.80;60.00;;;;;;5094695;28;20114;-74
2023/06/17 05:12:58;;;;;;;9.85;4.95;;;21.90;60.00;;;;;;5093988;28;20048;-74
2023/06/17 05:15:24;;;;;;;9.30;5.32;;;22.00;59.60;;;;;;5094501;28;20084;-74
2023/06/17 05:17:50;;;;;;;9.98;4.75;;;22.20;60.00;;;;;;5094733;28;20502;-74
2023/06/17 05:20:16;;;;;;;8.43;5.00;;;22.50;59.00;;;;;;5076434;28;20131;-74
2023/06/17 05:22:41;;;;;;;13.93;5.32;;;22.80;58.70;;;;;;5094567;28;20043;-74
2023/06/17 05:25:07;;;;;;;7.72;4.40;;;23.20;57.70;;;;;;5076235;28;20031;-74
2023/06/17 05:27:33;;;;;;;9.90;4.90;;;23.50;57.20;;;;;;5096079;28;20362;-74
2023/06/17 05:29:59;;;;;;;12.52;4.97;;;23.80;57.10;;;;;;5117791;28;20032;-74
2023/06/17 05:32:25;;;;;;;6.97;4.72;;;24.00;56.40;;;;;;5106957;28;20497;-74
2023/06/17 05:34:50;;;;;;;6.60;4.88;;;24.20;56.00;;;;;;5095489;28;20044;-75
2023/06/17 05:37:16;;;;;;;8.50;4.90;;;24.40;55.70;;;;;;5094327;28;20553;-73
2023/06/17 05:39:42;;;;;;;8.18;4.82;;;24.60;55.60;;;;;;5093650;28;20413;-74
2023/06/17 05:42:07;;;;;;;8.55;4.53;;;24.70;55.10;;;;;;5075841;28;20409;-75
2023/06/17 05:44:33;;;;;;;9.50;4.75;;;24.90;54.70;;;;;;5093814;28;20401;-74
2023/06/17 05:46:59;;;;;;;7.80;4.97;;;25.10;54.00;;;;;;5094107;28;20028;-74
2023/06/17 05:49:24;;;;;;;10.32;4.68;;;25.20;54.20;;;;;;5094206;28;20553;-75
2023/06/17 05:51:50;;;;;;;12.55;4.22;;;25.30;53.80;;;;;;5094058;28;20555;-75
2023/06/17 05:54:16;;;;;;;9.65;4.80;;;25.40;53.80;;;;;;5093973;28;20482;-74
2023/06/17 05:56:41;;;;;;;9.35;4.82;;;25.60;53.80;;;;;;5093730;28;20401;-74
2023/06/17 05:59:07;;;;;;;7.57;4.80;;;25.90;52.80;;;;;;5094019;28;20397;-74
2023/06/17 06:01:32;;;;;;;10.07;5.50;;;26.10;52.40;;;;;;5093767;28;20156;-73
2023/06/17 06:03:58;;;;;;;10.32;4.68;;;26.20;52.30;;;;;;5093881;28;20071;-74
2023/06/17 06:06:24;;;;;;;9.20;4.65;;;26.20;52.60;;;;;;5093640;28;20034;-74
2023/06/17 06:08:50;;;;;;;8.85;4.28;;;26.30;52.30;;;;;;5093439;28;20482;-75
2023/06/17 06:11:16;;;;;;;9.95;4.30;;;26.40;52.00;;;;;;5093881;28;20115;-73
2023/06/17 06:13:42;;;;;;;10.13;4.80;;;26.40;51.10;;;;;;5093345;28;20040;-74
2023/06/17 06:16:07;;;;;;;7.55;4.53;;;26.30;50.90;;;;;;5093738;28;20097;-75
2023/06/17 06:18:33;;;;;;;8.98;4.85;;;26.40;51.10;;;;;;5093786;28;20473;-74
2023/06/17 06:20:59;;;;;;;6.90;4.40;;;26.30;51.40;;;;;;5093514;28;20493;-74
2023/06/17 06:23:25;;;;;;;6.78;4.30;;;26.40;50.90;;;;;;5074621;28;20077;-76
2023/06/17 06:25:51;;;;;;;8.07;4.32;;;26.60;51.00;;;;;;5093144;28;20378;-75
2023/06/17 06:28:16;;;;;;;8.18;4.32;;;26.70;50.40;;;;;;5093223;28;20020;-74
2023/06/17 06:30:42;;;;;;;7.47;4.20;;;26.90;50.40;;;;;;5093263;28;20028;-73
2023/06/17 06:33:07;;;;;;;7.43;4.45;;;27.00;50.10;;;;;;5092981;28;20032;-75
2023/06/17 06:35:33;;;;;;;6.47;4.45;;;27.10;49.90;;;;;;5093264;28;20115;-75
2023/06/17 06:37:59;;;;;;;11.52;4.57;;;27.20;49.50;;;;;;5093145;28;20028;-75
2023/06/17 06:40:24;;;;;;;9.65;4.88;;;27.30;49.50;;;;;;5074855;28;20101;-74
2023/06/17 06:42:50;;;;;;;7.40;4.55;;;27.40;49.70;;;;;;5093031;28;20046;-73
2023/06/17 06:45:16;;;;;;;7.05;4.07;;;27.30;49.30;;;;;;5074709;28;20043;-74
2023/06/17 06:47:42;;;;;;;8.23;3.88;;;27.30;48.50;;;;;;5092847;28;20040;-74
2023/06/17 06:50:08;;;;;;;7.03;3.90;;;27.40;49.30;;;;;;5092682;28;20557;-75
2023/06/17 06:52:33;;;;;;;7.57;4.57;;;27.40;48.70;;;;;;5092859;28;20107;-74
2023/06/17 06:54:59;;;;;;;7.00;4.22;;;27.40;48.50;;;;;;5092420;28;20040;-74
2023/06/17 06:57:24;;;;;;;7.45;4.80;;;27.50;48.30;;;;;;5092525;28;20043;-75
2023/06/17 06:59:50;;;;;;;10.15;4.22;;;27.60;48.30;;;;;;5092557;28;20098;-75
2023/06/17 07:02:16;;;;;;;7.65;4.43;;;27.50;48.30;;;;;;5089854;28;20036;-74
2023/06/17 07:04:42;;;;;;;9.15;4.10;;;27.40;48.60;;;;;;5071854;28;20040;-74
2023/06/17 07:07:07;;;;;;;8.93;4.80;;;27.30;48.70;;;;;;5071885;28;20044;-75
2023/06/17 07:09:33;;;;;;;8.35;4.88;;;27.40;48.70;;;;;;5072640;28;20106;-75
2023/06/17 07:11:59;;;;;;;13.60;4.72;;;27.30;48.40;;;;;;5072157;28;20028;-75
2023/06/17 07:14:24;;;;;;;11.68;4.60;;;27.40;48.30;;;;;;5053963;28;20125;-73
2023/06/17 07:16:50;;;;;;;8.15;4.30;;;27.40;48.80;;;;;;5071528;28;20064;-75
2023/06/17 07:19:16;;;;;;;7.63;4.43;;;27.50;48.30;;;;;;5071892;28;20037;-74
2023/06/17 07:21:41;;;;;;;7.65;4.60;;;27.80;48.10;;;;;;5071588;28;20096;-74
2023/06/17 07:24:07;;;;;;;6.35;4.50;;;27.90;47.50;;;;;;5071889;28;20056;-75
2023/06/17 07:26:32;;;;;;;13.02;5.38;;;28.00;47.50;;;;;;5071710;28;20029;-75
2023/06/17 07:29:01;;;;;;;8.50;4.68;;;28.10;47.10;;;;;;5071735;28;20037;-75
2023/06/17 07:31:28;;;;;;;10.35;4.47;;;28.10;46.70;;;;;;5071763;28;20429;-76
2023/06/17 07:33:54;;;;;;;6.97;4.50;;;28.00;46.70;;;;;;5072040;28;20456;-77
2023/06/17 07:36:20;;;;;;;6.90;4.47;;;27.90;47.30;;;;;;5071454;28;20033;-73
2023/06/17 07:38:46;;;;;;;8.80;4.40;;;28.00;47.30;;;;;;5071534;28;20033;-76
2023/06/17 07:41:12;;;;;;;10.40;4.65;;;28.00;47.10;;;;;;5072116;28;20033;-77
2023/06/17 07:43:38;;;;;;;6.68;4.10;;;27.90;46.90;;;;;;5071932;28;20420;-76
2023/06/17 07:46:03;;;;;;;11.90;4.40;;;28.00;47.00;;;;;;5072442;28;20037;-80
2023/06/17 07:48:30;;;;;;;9.35;4.57;;;28.00;47.70;;;;;;5079707;28;20032;-79
2023/06/17 07:50:56;;;;;;;8.15;4.10;;;28.20;47.30;;;;;;5094350;28;20063;-77
2023/06/17 07:53:23;;;;;;;8.48;4.55;;;28.10;47.10;;;;;;5076671;28;20501;-76
2023/06/17 07:55:49;;;;;;;7.53;4.47;;;28.20;47.10;;;;;;5075322;28;20047;-77
2023/06/17 07:58:15;;;;;;;8.88;4.32;;;28.10;47.40;;;;;;5071863;28;20037;-76
2023/06/17 08:00:40;;;;;;;9.27;4.72;;;28.10;47.00;;;;;;5053967;28;20113;-79
2023/06/17 08:03:06;;;;;;;8.40;4.50;;;28.00;46.50;;;;;;5071850;28;20033;-75
2023/06/17 08:05:32;;;;;;;9.13;4.40;;;27.90;46.60;;;;;;5060381;28;20077;-77
2023/06/17 08:07:58;;;;;;;7.80;4.82;;;27.90;47.20;;;;;;5079372;28;20055;-76
2023/06/17 08:10:23;;;;;;;10.73;4.60;;;28.00;47.30;;;;;;5081745;28;20040;-77
2023/06/17 08:12:49;;;;;;;7.32;4.65;;;28.00;47.70;;;;;;5080567;28;20536;-74
2023/06/17 08:15:15;;;;;;;8.25;4.60;;;28.00;47.00;;;;;;5080245;28;20489;-81
2023/06/17 08:17:42;;;;;;;10.48;4.82;;;27.90;47.10;;;;;;5091872;28;20122;-81
2023/06/17 08:20:09;;;;;;;15.57;5.50;;;27.90;47.30;;;;;;5092611;28;20036;-82
2023/06/17 08:22:36;;;;;;;8.20;5.00;;;27.80;46.60;;;;;;5091683;28;20032;-74
2023/06/17 08:25:03;;;;;;;12.93;4.95;;;27.70;47.10;;;;;;5091358;28;20123;-73
2023/06/17 08:27:28;;;;;;;8.88;5.03;;;27.70;47.10;;;;;;5090689;28;20055;-72
2023/06/17 08:29:54;;;;;;;7.70;4.25;;;27.60;47.30;;;;;;5090917;28;20032;-72
2023/06/17 08:32:20;;;;;;;8.38;4.68;;;27.50;47.60;;;;;;5091307;28;20036;-72
2023/06/17 08:34:46;;;;;;;8.88;5.00;;;27.50;47.80;;;;;;5091300;28;20505;-78
2023/06/17 08:37:12;;;;;;;8.98;5.15;;;27.50;47.90;;;;;;5091298;28;20040;-75
2023/06/17 08:39:39;;;;;;;8.57;5.07;;;27.50;48.10;;;;;;5073328;28;20040;-79
2023/06/17 08:42:06;;;;;;;8.38;5.20;;;27.50;48.00;;;;;;5091423;28;20028;-68
2023/06/17 08:44:35;;;;;;;9.38;4.80;;;27.50;47.30;;;;;;5091226;28;20493;-77
2023/06/17 08:47:03;;;;;;;27.00;9.05;;;27.40;48.50;;;;;;5091948;28;20086;-76
2023/06/17 08:49:29;;;;;;;15.20;6.50;;;27.50;48.70;;;;;;5094931;28;20108;-76
2023/06/17 08:51:56;;;;;;;8.65;4.60;;;27.50;48.90;;;;;;5084642;28;20568;-84
2023/06/17 08:54:24;;;;;;;9.82;5.20;;;27.50;48.50;;;;;;5075709;28;20143;-85
2023/06/17 08:56:50;;;;;;;12.45;5.13;;;27.50;48.40;;;;;;5075303;28;20026;-83
2023/06/17 08:59:15;;;;;;;9.77;5.30;;;27.50;48.10;;;;;;5076202;28;20049;-84
2023/06/17 09:01:43;;;;;;;8.38;4.88;;;27.40;48.00;;;;;;5076359;28;20025;-85
2023/06/17 09:04:09;;;;;;;9.07;4.88;;;27.40;48.30;;;;;;5077014;28;20126;-84
2023/06/17 09:06:35;;;;;;;9.05;4.90;;;27.40;48.30;;;;;;5077164;28;20020;-83
2023/06/17 09:09:01;;;;;;;9.18;5.45;;;27.30;48.00;;;;;;5059580;28;20043;-85
2023/06/17 09:11:31;;;;;;;11.60;4.88;;;27.30;47.80;;;;;;5077794;28;20047;-85
2023/06/17 09:13:58;;;;;;;10.23;4.97;;;27.30;47.70;;;;;;5077511;28;20070;-84
2023/06/17 09:16:34;;;;;;;7.20;4.78;;;27.30;47.70;;;;;;5059940;28;20033;-84
2023/06/17 09:19:09;;;;;;;11.77;5.72;;;27.40;47.80;;;;;;5077611;28;20435;-84
2023/06/17 09:21:36;;;;;;;15.82;6.13;;;27.50;47.90;;;;;;5078009;28;20036;-84
2023/06/17 09:24:06;;;;;;;9.25;5.70;;;27.50;48.30;;;;;;5077390;28;20131;-84
2023/06/17 09:26:34;;;;;;;10.90;5.30;;;27.50;48.30;;;;;;5078650;28;20518;-86
2023/06/17 09:29:04;;;;;;;9.30;5.38;;;27.50;48.50;;;;;;5077812;28;20025;-86
2023/06/17 09:31:31;;;;;;;10.25;5.53;;;27.50;47.30;;;;;;5077555;28;20112;-86
2023/06/17 09:33:57;;;;;;;6.43;4.70;;;27.50;47.90;;;;;;5078221;28;20048;-86
2023/06/17 09:36:25;;;;;;;7.13;4.90;;;27.60;47.80;;;;;;5077036;28;20439;-85
2023/06/17 09:38:51;;;;;;;10.52;5.32;;;27.70;47.80;;;;;;5060295;28;20037;-85
2023/06/17 09:41:18;;;;;;;6.85;4.57;;;27.70;47.00;;;;;;5083103;28;20035;-85
2023/06/17 09:43:54;;;;;;;9.63;5.03;;;27.70;46.70;;;;;;5082715;28;20025;-86
2023/06/17 09:46:35;;;;;;;9.15;5.20;;;27.70;46.50;;;;;;5080612;28;20092;-85
2023/06/17 09:49:05;;;;;;;8.38;5.68;;;27.80;46.40;;;;;;5077401;28;20032;-85
2023/06/17 09:51:36;;;;;;;9.25;4.80;;;27.80;46.60;;;;;;5076940;28;20059;-84
2023/06/17 09:54:02;;;;;;;7.68;5.00;;;27.90;46.80;;;;;;5076513;28;20036;-83
2023/06/17 09:56:31;;;;;;;6.93;4.32;;;27.80;46.50;;;;;;5082325;28;20041;-85
2023/06/17 09:58:57;;;;;;;8.00;4.53;;;27.80;46.40;;;;;;5091070;28;20048;-84
2023/06/17 10:01:28;;;;;;;8.48;4.88;;;27.90;45.60;;;;;;5085548;28;20028;-84
2023/06/17 10:03:54;;;;;;;10.32;5.07;;;27.90;44.90;;;;;;5093252;28;20040;-82
2023/06/17 10:06:20;;;;;;;11.93;5.60;;;28.00;45.10;;;;;;5088126;28;20047;-84
2023/06/17 10:08:52;;;;;;;11.15;5.22;;;28.00;44.80;;;;;;5068916;28;20091;-84
2023/06/17 10:11:19;;;;;;;8.35;5.07;;;28.10;44.40;;;;;;5083188;28;20037;-86
2023/06/17 10:13:56;;;;;;;9.88;5.90;;;28.10;42.40;;;;;;5076744;28;20051;-85
2023/06/17 10:16:25;;;;;;;9.45;5.28;;;28.20;42.10;;;;;;5076257;28;20073;-85
2023/06/17 10:18:53;;;;;;;10.40;4.97;;;28.30;42.00;;;;;;5057850;28;20545;-85
2023/06/17 10:21:22;;;;;;;8.80;4.80;;;28.30;41.90;;;;;;5076408;28;20462;-84
2023/06/17 10:23:49;;;;;;;10.70;5.07;;;28.30;41.70;;;;;;5061916;28;20064;-85
2023/06/17 10:26:15;;;;;;;8.85;4.70;;;28.30;42.20;;;;;;5078549;28;20112;-84
2023/06/17 10:28:53;;;;;;;7.45;5.38;;;28.40;41.80;;;;;;5079058;28;20052;-84
2023/06/17 10:31:27;;;;;;;9.45;4.82;;;28.50;40.90;;;;;;5078830;28;20152;-84
2023/06/17 10:33:54;;;;;;;10.65;5.40;;;28.50;41.40;;;;;;5081263;28;20643;-85
2023/06/17 10:36:21;;;;;;;11.00;5.78;;;28.60;42.80;;;;;;5074884;28;20405;-84
2023/06/17 10:38:58;;;;;;;10.85;4.80;;;28.70;43.00;;;;;;5076205;28;20036;-85
2023/06/17 10:41:39;;;;;;;13.90;4.95;;;28.70;41.30;;;;;;5076003;28;20529;-85
2023/06/17 10:44:41;;;;;;;8.32;4.88;;;28.80;40.90;;;;;;5075334;28;20097;-85
2023/06/17 10:47:21;;;;;;;8.25;4.90;;;28.80;41.10;;;;;;5035065;28;20355;-85
2023/06/17 10:49:50;;;;;;;9.50;5.18;;;28.80;42.60;;;;;;5077243;28;20150;-86
2023/06/17 10:52:17;;;;;;;7.43;4.20;;;28.90;42.60;;;;;;5078860;28;20474;-85
2023/06/17 10:54:51;;;;;;;8.15;4.30;;;28.90;42.20;;;;;;5077668;28;20360;-85
2023/06/17 10:57:35;;;;;;;7.53;4.60;;;28.90;41.90;;;;;;5077899;28;20517;-83
2023/06/17 11:00:13;;;;;;;8.20;3.78;;;28.90;40.30;;;;;;5075017;28;20525;-85
2023/06/17 11:02:40;;;;;;;8.10;4.00;;;29.00;40.60;;;;;;5074481;28;20044;-85
2023/06/17 11:05:06;;;;;;;8.00;4.22;;;29.00;41.10;;;;;;5074822;28;20490;-85
2023/06/17 11:07:32;;;;;;;6.28;4.47;;;29.00;41.60;;;;;;5075189;28;20386;-84
2023/06/17 11:09:58;;;;;;;7.25;3.88;;;29.00;41.40;;;;;;5075614;28;20032;-85
2023/06/17 11:12:24;;;;;;;5.38;3.58;;;29.10;41.20;;;;;;5074175;28;20039;-85
2023/06/17 11:14:50;;;;;;;5.75;3.85;;;29.10;40.40;;;;;;5075343;28;20442;-85
2023/06/17 11:17:16;;;;;;;6.70;3.85;;;29.20;40.00;;;;;;5074775;28;20040;-85
2023/06/17 11:19:41;;;;;;;6.05;4.18;;;29.20;39.70;;;;;;5073658;28;20521;-83
2023/06/17 11:22:07;;;;;;;6.63;3.80;;;29.30;39.70;;;;;;5074679;28;20081;-83
2023/06/17 11:24:37;;;;;;;7.78;4.40;;;29.30;39.90;;;;;;5072797;28;20066;-80
2023/06/17 11:27:05;;;;;;;10.77;5.35;;;29.30;40.50;;;;;;5072790;28;20051;-88
2023/06/17 11:29:31;;;;;;;7.10;4.00;;;29.30;41.10;;;;;;5073872;28;20407;-77
2023/06/17 11:32:01;;;;;;;6.78;4.07;;;29.40;41.20;;;;;;5072890;28;20107;-80
2023/06/17 11:34:31;;;;;;;8.80;4.38;;;29.40;41.10;;;;;;5055763;28;20045;-80
2023/06/17 11:37:06;;;;;;;7.47;3.95;;;29.50;41.00;;;;;;5074160;28;20025;-77
2023/06/17 11:39:31;;;;;;;8.02;4.10;;;29.50;40.90;;;;;;5075633;28;20052;-78
2023/06/17 11:42:03;;;;;;;6.28;3.90;;;29.60;40.70;;;;;;5058738;28;20028;-84
2023/06/17 11:44:32;;;;;;;8.77;3.92;;;29.60;40.00;;;;;;5093207;28;20036;-84
2023/06/17 11:47:09;;;;;;;6.22;3.83;;;29.70;39.80;;;;;;5072449;28;20032;-79
2023/06/17 11:49:35;;;;;;;9.25;4.10;;;29.80;39.50;;;;;;5093096;28;20036;-82
2023/06/17 11:52:08;;;;;;;5.68;3.90;;;29.80;39.60;;;;;;5101265;28;20036;-91
2023/06/17 11:54:36;;;;;;;6.50;3.97;;;29.80;39.10;;;;;;5101873;28;20044;-87
2023/06/17 11:57:02;;;;;;;6.88;3.58;;;29.80;39.40;;;;;;5084972;28;20424;-87
2023/06/17 11:59:30;;;;;;;4.97;3.50;;;29.90;38.50;;;;;;5086160;28;20020;-88
2023/06/17 12:01:56;;;;;;;8.38;3.83;;;29.90;37.50;;;;;;5089256;28;20113;-89
2023/06/17 12:04:22;;;;;;;5.15;3.40;;;29.90;37.80;;;;;;5087106;28;20039;-89
2023/06/17 12:06:48;;;;;;;6.35;3.72;;;30.00;37.70;;;;;;5091271;28;20031;-86
2023/06/17 12:17:00;;;;;;;5.28;3.50;;;30.10;37.70;;;;;;5652076;22;20040;-88
2023/06/17 12:19:25;;;;;;;5.95;3.58;;;30.10;37.20;;;;;;5111450;22;20048;-89
2023/06/17 12:21:51;;;;;;;9.32;3.78;;;30.10;37.40;;;;;;5096654;28;20082;-80
2023/06/17 12:24:19;;;;;;;7.05;4.03;;;30.10;36.90;;;;;;5092573;28;20533;-79
2023/06/17 12:26:45;;;;;;;7.70;3.65;;;30.10;37.40;;;;;;5106327;28;20049;-91
2023/06/17 12:29:13;;;;;;;6.72;3.75;;;30.10;37.20;;;;;;5108747;28;20064;-86
2023/06/17 12:31:39;;;;;;;6.45;3.42;;;30.10;37.00;;;;;;5101680;28;20035;-78
2023/06/17 12:34:06;;;;;;;6.63;3.60;;;30.20;37.30;;;;;;5100376;28;20397;-90
2023/06/17 12:36:32;;;;;;;6.65;3.90;;;30.20;36.90;;;;;;5099083;28;20024;-89
2023/06/17 12:39:00;;;;;;;7.18;3.53;;;30.30;36.20;;;;;;5098305;28;20443;-86
2023/06/17 12:41:26;;;;;;;5.57;3.70;;;30.20;36.00;;;;;;5098263;28;20032;-88
2023/06/17 12:43:52;;;;;;;6.15;4.25;;;30.30;36.20;;;;;;5078190;28;20050;-89
2023/06/17 12:46:18;;;;;;;9.68;3.83;;;30.40;37.30;;;;;;5097555;28;20032;-84
2023/06/17 12:48:44;;;;;;;9.00;3.95;;;30.50;36.70;;;;;;5077829;28;20405;-81
2023/06/17 12:51:10;;;;;;;7.40;3.72;;;30.50;36.60;;;;;;5098096;28;20028;-82
2023/06/17 12:53:35;;;;;;;6.93;3.83;;;30.50;36.60;;;;;;5079280;28;20456;-84
2023/06/17 12:56:01;;;;;;;6.40;3.88;;;30.60;36.80;;;;;;5101046;28;20033;-90
2023/06/17 13:54:20;;;;;;;5.85;3.20;;;31.20;33.60;;;;;;523865;26;20348;-89
2023/06/17 13:56:47;;;;;;;6.32;3.95;;;31.20;33.50;;;;;;5023880;28;20066;-91
2023/06/17 13:59:13;;;;;;;6.13;3.60;;;31.20;36.50;;;;;;5016505;28;20030;-90
2023/06/17 14:01:39;;;;;;;8.40;4.13;;;31.20;38.00;;;;;;5016994;28;20045;-91
2023/06/17 14:04:05;;;;;;;6.72;4.00;;;31.20;39.40;;;;;;5017105;28;20042;-90
2023/06/17 14:06:31;;;;;;;7.47;3.90;;;31.10;40.10;;;;;;5018475;28;20094;-94
2023/06/17 14:08:58;;;;;;;9.30;3.90;;;31.20;40.80;;;;;;5020148;28;20117;-89
2023/06/17 14:11:25;;;;;;;5.97;4.00;;;31.00;41.20;;;;;;5018793;28;20472;-90
2023/06/17 14:13:51;;;;;;;9.18;4.07;;;31.00;41.60;;;;;;5027732;28;20037;-90
2023/06/17 14:16:17;;;;;;;7.78;3.97;;;31.00;41.90;;;;;;5026915;28;20045;-89
2023/06/17 14:18:42;;;;;;;6.28;4.00;;;31.10;42.20;;;;;;5020414;28;20045;-91
2023/06/17 14:21:30;;;;;;;6.22;4.05;;;31.00;42.00;;;;;;5018885;28;20418;-92
2023/06/17 14:24:06;;;;;;;5.97;3.75;;;31.00;43.00;;;;;;5028785;28;20057;-90
2023/06/17 14:26:37;;;;;;;9.07;3.80;;;31.00;43.30;;;;;;5023887;28;20443;-91
2023/06/17 14:29:03;;;;;;;6.28;3.83;;;31.00;43.90;;;;;;5017785;28;20038;-91
2023/06/17 14:31:29;;;;;;;8.48;4.20;;;30.90;43.60;;;;;;5019702;28;20022;-92
2023/06/17 14:33:55;;;;;;;7.65;3.92;;;31.00;43.50;;;;;;5022252;28;20092;-91
2023/06/17 14:36:22;;;;;;;6.32;3.83;;;31.00;43.10;;;;;;5024556;28;20036;-92
2023/06/17 14:38:48;;;;;;;7.88;4.03;;;30.90;43.20;;;;;;5029266;28;20084;-90
2023/06/17 14:41:14;;;;;;;6.75;3.95;;;30.90;42.90;;;;;;5043309;28;20053;-91
2023/06/17 14:43:40;;;;;;;5.75;3.67;;;30.90;42.70;;;;;;5021147;28;20053;-87
2023/06/17 14:46:06;;;;;;;6.65;3.60;;;30.90;42.80;;;;;;5030942;28;20037;-89
2023/06/17 14:48:32;;;;;;;5.97;3.75;;;31.00;42.90;;;;;;5031209;28;20041;-91
2023/06/17 14:50:57;;;;;;;9.52;3.92;;;31.10;43.30;;;;;;5032964;28;20038;-89
2023/06/17 14:58:48;;;;;;;8.77;3.97;;;31.10;43.00;;;;;;5579234;23;20037;-89
2023/06/17 15:01:14;;;;;;;6.20;4.18;;;31.20;43.90;;;;;;5059193;28;20018;-85
2023/06/17 15:08:43;;;;;;;7.25;4.00;;;31.20;44.00;;;;;;5008892;28;20050;-92
2023/06/17 15:11:09;;;;;;;7.93;4.10;;;31.10;44.80;;;;;;4986504;28;20154;-86
2023/06/17 15:13:34;;;;;;;6.25;4.00;;;31.10;44.90;;;;;;4997117;28;20035;-85
2023/06/17 15:16:01;;;;;;;7.00;3.78;;;31.10;45.00;;;;;;4998725;28;20555;-85
2023/06/17 15:18:26;;;;;;;8.20;3.83;;;31.20;45.10;;;;;;4961185;28;20400;-86
2023/06/17 15:20:52;;;;;;;8.35;4.22;;;31.10;44.60;;;;;;4994394;28;20031;-86
2023/06/17 15:23:18;;;;;;;5.75;3.85;;;31.10;44.20;;;;;;4994357;28;20125;-85
2023/06/17 15:25:44;;;;;;;7.28;3.97;;;31.00;44.50;;;;;;4976613;28;20030;-86
2023/06/17 15:28:09;;;;;;;7.32;4.13;;;31.10;44.80;;;;;;4996064;28;20047;-85
2023/06/17 15:30:35;;;;;;;5.68;3.90;;;31.10;44.70;;;;;;4998910;28;20026;-85
2023/06/17 15:33:02;;;;;;;6.47;3.60;;;31.10;44.90;;;;;;5006517;28;20181;-86
2023/06/17 15:35:28;;;;;;;9.70;4.00;;;31.00;44.70;;;;;;5003539;28;20034;-86
2023/06/17 15:37:54;;;;;;;4.78;3.53;;;30.90;45.00;;;;;;4994404;28;20113;-86